sensor_id;sensor_type;location;lat;lon;timestamp;pressure;altitude;pressure_sealevel;temperature;humidity
33454;BME280;39400;49.744;7.012;2023-04-06T00:00:19;96042.09;;;2.50;61.74
33454;BME280;39400;49.744;7.012;2023-04-06T00:02:45;96042.09;;;2.50;61.52
33454;BME280;39400;49.744;7.012;2023-04-06T00:05:10;96036.44;;;2.43;61.18
33454;BME280;39400;49.744;7.012;2023-04-06T00:07:35;96034.84;;;2.42;61.54
33454;BME280;39400;49.744;7.012;2023-04-06T00:10:02;96041.19;;;2.46;61.70
33454;BME280;39400;49.744;7.012;2023-04-06T00:12:27;96033.84;;;2.46;61.44
33454;BME280;39400;49.744;7.012;2023-04-06T00:14:53;96038.03;;;2.44;61.65
33454;BME280;39400;49.744;7.012;2023-04-06T00:17:18;96030.69;;;2.56;61.37
33454;BME280;39400;49.744;7.012;2023-04-06T00:19:44;96029.31;;;2.62;61.29
33454;BME280;39400;49.744;7.012;2023-04-06T00:22:09;96031.13;;;2.46;61.57
33454;BME280;39400;49.744;7.012;2023-04-06T00:24:35;96028.84;;;2.48;61.92
33454;BME280;39400;49.744;7.012;2023-04-06T00:27:00;96022.66;;;2.48;62.11
33454;BME280;39400;49.744;7.012;2023-04-06T00:29:25;96027.16;;;2.44;61.62
33454;BME280;39400;49.744;7.012;2023-04-06T00:31:51;96024.47;;;2.44;62.05
33454;BME280;39400;49.744;7.012;2023-04-06T00:34:16;96022.41;;;2.41;62.25
33454;BME280;39400;49.744;7.012;2023-04-06T00:36:41;96023.78;;;2.47;62.56
33454;BME280;39400;49.744;7.012;2023-04-06T00:39:07;96019.03;;;2.44;62.30
33454;BME280;39400;49.744;7.012;2023-04-06T00:41:32;96016.53;;;2.51;62.67
33454;BME280;39400;49.744;7.012;2023-04-06T00:43:58;96012.00;;;2.55;62.27
33454;BME280;39400;49.744;7.012;2023-04-06T00:46:23;96012.81;;;2.55;62.02
33454;BME280;39400;49.744;7.012;2023-04-06T00:48:49;96006.38;;;2.60;62.56
33454;BME280;39400;49.744;7.012;2023-04-06T00:51:14;96016.75;;;2.46;63.03
33454;BME280;39400;49.744;7.012;2023-04-06T00:53:40;96007.38;;;2.31;64.23
33454;BME280;39400;49.744;7.012;2023-04-06T00:56:06;96006.34;;;2.23;64.04
33454;BME280;39400;49.744;7.012;2023-04-06T00:58:44;96008.97;;;2.20;63.90
33454;BME280;39400;49.744;7.012;2023-04-06T01:01:09;95997.41;;;1.98;64.80
33454;BME280;39400;49.744;7.012;2023-04-06T01:03:35;95996.75;;;2.01;64.00
33454;BME280;39400;49.744;7.012;2023-04-06T01:06:01;96000.22;;;1.89;65.08
33454;BME280;39400;49.744;7.012;2023-04-06T01:08:33;95992.94;;;1.69;66.43
33454;BME280;39400;49.744;7.012;2023-04-06T01:11:12;95992.69;;;1.62;66.87
33454;BME280;39400;49.744;7.012;2023-04-06T01:13:38;95991.13;;;1.61;66.46
33454;BME280;39400;49.744;7.012;2023-04-06T01:16:07;95991.13;;;1.61;66.32
33454;BME280;39400;49.744;7.012;2023-04-06T01:18:56;95990.44;;;1.64;66.77
33454;BME280;39400;49.744;7.012;2023-04-06T01:21:26;95990.88;;;1.54;66.54
33454;BME280;39400;49.744;7.012;2023-04-06T01:24:06;95983.06;;;1.52;66.87
33454;BME280;39400;49.744;7.012;2023-04-06T01:26:45;95984.78;;;1.57;66.44
33454;BME280;39400;49.744;7.012;2023-04-06T01:29:11;95979.56;;;1.52;67.63
33454;BME280;39400;49.744;7.012;2023-04-06T01:31:37;95984.78;;;1.57;66.61
33454;BME280;39400;49.744;7.012;2023-04-06T01:34:03;95977.22;;;1.62;66.48
33454;BME280;39400;49.744;7.012;2023-04-06T01:36:29;95979.63;;;1.64;66.70
33454;BME280;39400;49.744;7.012;2023-04-06T01:39:03;95971.38;;;1.60;67.51
33454;BME280;39400;49.744;7.012;2023-04-06T01:41:34;95972.09;;;1.49;67.09
33454;BME280;39400;49.744;7.012;2023-04-06T01:43:59;95962.53;;;1.51;67.44
33454;BME280;39400;49.744;7.012;2023-04-06T01:46:28;95960.59;;;1.39;67.93
33454;BME280;39400;49.744;7.012;2023-04-06T01:48:55;95965.16;;;1.27;68.34
33454;BME280;39400;49.744;7.012;2023-04-06T01:51:29;95965.28;;;1.30;67.93
33454;BME280;39400;49.744;7.012;2023-04-06T01:53:58;95960.94;;;1.17;67.95
33454;BME280;39400;49.744;7.012;2023-04-06T01:56:33;95953.81;;;1.12;68.52
33454;BME280;39400;49.744;7.012;2023-04-06T01:59:06;95963.09;;;1.11;68.83
33454;BME280;39400;49.744;7.012;2023-04-06T02:01:37;95959.78;;;1.06;68.47
33454;BME280;39400;49.744;7.012;2023-04-06T02:04:03;95964.63;;;1.33;68.53
33454;BME280;39400;49.744;7.012;2023-04-06T02:06:28;95968.53;;;1.57;67.70
33454;BME280;39400;49.744;7.012;2023-04-06T02:08:54;95957.16;;;1.63;68.05
33454;BME280;39400;49.744;7.012;2023-04-06T02:11:20;95963.22;;;1.60;68.20
33454;BME280;39400;49.744;7.012;2023-04-06T02:13:49;95950.19;;;1.41;69.39
33454;BME280;39400;49.744;7.012;2023-04-06T02:16:15;95954.91;;;1.32;69.13
33454;BME280;39400;49.744;7.012;2023-04-06T02:18:40;95960.94;;;1.17;70.15
33454;BME280;39400;49.744;7.012;2023-04-06T02:21:06;95959.03;;;1.17;70.73
33454;BME280;39400;49.744;7.012;2023-04-06T02:23:31;95958.03;;;1.22;70.32
33454;BME280;39400;49.744;7.012;2023-04-06T02:25:57;95956.72;;;1.28;70.09
33454;BME280;39400;49.744;7.012;2023-04-06T02:28:22;95957.78;;;1.15;70.26
33454;BME280;39400;49.744;7.012;2023-04-06T02:30:48;95952.25;;;1.11;70.69
33454;BME280;39400;49.744;7.012;2023-04-06T02:33:13;95955.09;;;1.15;70.47
33454;BME280;39400;49.744;7.012;2023-04-06T02:35:45;95946.63;;;0.95;70.95
33454;BME280;39400;49.744;7.012;2023-04-06T02:38:10;95946.84;;;0.90;71.00
33454;BME280;39400;49.744;7.012;2023-04-06T02:40:36;95947.97;;;0.89;71.56
33454;BME280;39400;49.744;7.012;2023-04-06T02:43:12;95948.88;;;0.93;71.59
33454;BME280;39400;49.744;7.012;2023-04-06T02:45:38;95949.09;;;0.88;72.21
33454;BME280;39400;49.744;7.012;2023-04-06T02:48:04;95947.13;;;0.77;72.70
33454;BME280;39400;49.744;7.012;2023-04-06T02:50:31;95952.31;;;0.61;73.52
33454;BME280;39400;49.744;7.012;2023-04-06T02:53:01;95941.88;;;0.51;73.72
33454;BME280;39400;49.744;7.012;2023-04-06T02:55:26;95944.72;;;0.33;74.46
33454;BME280;39400;49.744;7.012;2023-04-06T02:57:51;95946.66;;;0.24;74.51
33454;BME280;39400;49.744;7.012;2023-04-06T03:00:20;95949.09;;;0.17;75.04
33454;BME280;39400;49.744;7.012;2023-04-06T03:02:46;95943.53;;;0.13;75.49
33454;BME280;39400;49.744;7.012;2023-04-06T03:05:14;95940.59;;;0.27;75.79
33454;BME280;39400;49.744;7.012;2023-04-06T03:07:42;95941.13;;;0.20;75.21
33454;BME280;39400;49.744;7.012;2023-04-06T03:10:13;95944.16;;;0.19;75.20
33454;BME280;39400;49.744;7.012;2023-04-06T03:12:38;95943.78;;;0.29;75.17
33454;BME280;39400;49.744;7.012;2023-04-06T03:15:20;95942.47;;;0.35;75.27
33454;BME280;39400;49.744;7.012;2023-04-06T03:17:51;95940.50;;;0.44;75.34
33454;BME280;39400;49.744;7.012;2023-04-06T03:20:31;95942.09;;;0.45;75.91
33454;BME280;39400;49.744;7.012;2023-04-06T03:22:56;95940.03;;;0.42;75.23
33454;BME280;39400;49.744;7.012;2023-04-06T03:25:26;95934.16;;;0.40;75.55
33454;BME280;39400;49.744;7.012;2023-04-06T03:27:52;95938.09;;;0.22;76.18
33454;BME280;39400;49.744;7.012;2023-04-06T03:30:19;95948.66;;;0.15;76.57
33454;BME280;39400;49.744;7.012;2023-04-06T03:32:44;95941.94;;;0.21;76.48
33454;BME280;39400;49.744;7.012;2023-04-06T03:35:10;95946.94;;;0.31;75.82
33454;BME280;39400;49.744;7.012;2023-04-06T03:37:35;95948.28;;;0.25;76.31
33454;BME280;39400;49.744;7.012;2023-04-06T03:40:03;95948.41;;;0.29;75.72
33454;BME280;39400;49.744;7.012;2023-04-06T03:42:29;95950.78;;;0.30;75.87
33454;BME280;39400;49.744;7.012;2023-04-06T03:45:00;95948.16;;;0.42;75.37
33454;BME280;39400;49.744;7.012;2023-04-06T03:47:26;95948.34;;;0.37;76.11
33454;BME280;39400;49.744;7.012;2023-04-06T03:49:56;95946.84;;;0.49;75.11
33454;BME280;39400;49.744;7.012;2023-04-06T03:52:21;95945.59;;;0.46;75.26
33454;BME280;39400;49.744;7.012;2023-04-06T03:54:46;95947.38;;;0.42;75.99
33454;BME280;39400;49.744;7.012;2023-04-06T03:57:12;95948.69;;;0.36;75.15
33454;BME280;39400;49.744;7.012;2023-04-06T03:59:37;95955.25;;;0.26;76.34
33454;BME280;39400;49.744;7.012;2023-04-06T04:02:03;95947.78;;;0.23;76.24
33454;BME280;39400;49.744;7.012;2023-04-06T04:04:28;95953.41;;;0.18;76.14
33454;BME280;39400;49.744;7.012;2023-04-06T04:06:54;95958.03;;;0.17;76.56
33454;BME280;39400;49.744;7.012;2023-04-06T04:09:19;95954.84;;;0.15;76.13
33454;BME280;39400;49.744;7.012;2023-04-06T04:11:45;95953.53;;;0.21;76.24
33454;BME280;39400;49.744;7.012;2023-04-06T04:14:10;95963.88;;;0.49;76.06
33454;BME280;39400;49.744;7.012;2023-04-06T04:16:36;95961.63;;;0.72;75.60
33454;BME280;39400;49.744;7.012;2023-04-06T04:19:01;95959.91;;;0.88;75.07
33454;BME280;39400;49.744;7.012;2023-04-06T04:21:29;95966.25;;;0.92;74.76
33454;BME280;39400;49.744;7.012;2023-04-06T04:23:55;95960.84;;;0.92;74.49
33454;BME280;39400;49.744;7.012;2023-04-06T04:26:20;95965.06;;;0.81;74.52
33454;BME280;39400;49.744;7.012;2023-04-06T04:28:46;95965.94;;;0.73;74.85
33454;BME280;39400;49.744;7.012;2023-04-06T04:31:11;95970.59;;;0.64;75.87
33454;BME280;39400;49.744;7.012;2023-04-06T04:33:38;95957.25;;;0.59;76.68
33454;BME280;39400;49.744;7.012;2023-04-06T04:36:09;95968.06;;;0.59;76.31
33454;BME280;39400;49.744;7.012;2023-04-06T04:38:38;95972.13;;;0.53;76.98
33454;BME280;39400;49.744;7.012;2023-04-06T04:41:04;95970.34;;;0.57;76.74
33454;BME280;39400;49.744;7.012;2023-04-06T04:43:30;95974.31;;;0.59;76.89
33454;BME280;39400;49.744;7.012;2023-04-06T04:45:57;95974.44;;;0.63;76.20
33454;BME280;39400;49.744;7.012;2023-04-06T04:48:40;95975.22;;;0.42;76.85
33454;BME280;39400;49.744;7.012;2023-04-06T04:51:06;95969.31;;;0.40;77.87
33454;BME280;39400;49.744;7.012;2023-04-06T04:53:51;95967.81;;;0.52;77.55
33454;BME280;39400;49.744;7.012;2023-04-06T04:56:22;95977.31;;;0.58;77.50
33454;BME280;39400;49.744;7.012;2023-04-06T04:58:52;95982.56;;;0.63;77.34
33454;BME280;39400;49.744;7.012;2023-04-06T05:01:18;95980.50;;;0.60;77.81
33454;BME280;39400;49.744;7.012;2023-04-06T05:03:45;95978.19;;;0.70;77.07
33454;BME280;39400;49.744;7.012;2023-04-06T05:06:13;95978.53;;;0.69;77.50
33454;BME280;39400;49.744;7.012;2023-04-06T05:08:41;95979.19;;;0.66;77.47
33454;BME280;39400;49.744;7.012;2023-04-06T05:11:08;95982.34;;;0.68;77.33
33454;BME280;39400;49.744;7.012;2023-04-06T05:13:38;95987.69;;;0.56;77.77
33454;BME280;39400;49.744;7.012;2023-04-06T05:16:10;95985.38;;;0.45;78.44
33454;BME280;39400;49.744;7.012;2023-04-06T05:18:36;95989.84;;;0.41;78.44
33454;BME280;39400;49.744;7.012;2023-04-06T05:21:02;95990.78;;;0.45;78.42
33454;BME280;39400;49.744;7.012;2023-04-06T05:23:37;95990.03;;;0.66;78.13
33454;BME280;39400;49.744;7.012;2023-04-06T05:26:02;95990.69;;;0.84;77.25
33454;BME280;39400;49.744;7.012;2023-04-06T05:28:28;95987.50;;;1.03;77.26
33454;BME280;39400;49.744;7.012;2023-04-06T05:30:53;95984.88;;;1.15;76.41
33454;BME280;39400;49.744;7.012;2023-04-06T05:33:19;95986.19;;;1.09;77.25
33454;BME280;39400;49.744;7.012;2023-04-06T05:36:00;95985.00;;;0.98;77.61
33454;BME280;39400;49.744;7.012;2023-04-06T05:38:25;95994.38;;;1.00;78.56
33454;BME280;39400;49.744;7.012;2023-04-06T05:40:53;95985.81;;;0.98;78.80
33454;BME280;39400;49.744;7.012;2023-04-06T05:43:22;95987.97;;;1.05;79.19
33454;BME280;39400;49.744;7.012;2023-04-06T05:45:52;95985.53;;;1.12;78.74
33454;BME280;39400;49.744;7.012;2023-04-06T05:48:18;95986.94;;;1.30;77.56
33454;BME280;39400;49.744;7.012;2023-04-06T05:50:48;95985.88;;;1.43;78.60
33454;BME280;39400;49.744;7.012;2023-04-06T05:53:14;95987.50;;;1.69;77.62
33454;BME280;39400;49.744;7.012;2023-04-06T05:55:43;95987.66;;;1.85;76.72
33454;BME280;39400;49.744;7.012;2023-04-06T05:58:14;95990.75;;;2.08;76.58
33454;BME280;39400;49.744;7.012;2023-04-06T06:00:40;95991.66;;;2.24;75.80
33454;BME280;39400;49.744;7.012;2023-04-06T06:03:07;95997.56;;;2.26;75.17
33454;BME280;39400;49.744;7.012;2023-04-06T06:05:34;95991.22;;;2.34;74.12
33454;BME280;39400;49.744;7.012;2023-04-06T06:08:07;95987.38;;;2.48;74.31
33454;BME280;39400;49.744;7.012;2023-04-06T06:10:34;95989.16;;;2.68;73.62
33454;BME280;39400;49.744;7.012;2023-04-06T06:13:00;95991.16;;;2.83;74.11
33454;BME280;39400;49.744;7.012;2023-04-06T06:15:26;95991.09;;;3.08;72.71
33454;BME280;39400;49.744;7.012;2023-04-06T06:17:52;95983.91;;;3.28;71.75
33454;BME280;39400;49.744;7.012;2023-04-06T06:20:17;95993.84;;;3.36;70.93
33454;BME280;39400;49.744;7.012;2023-04-06T06:22:43;95989.25;;;3.52;71.03
33454;BME280;39400;49.744;7.012;2023-04-06T06:25:14;96002.03;;;3.52;72.79
33454;BME280;39400;49.744;7.012;2023-04-06T06:27:40;95991.75;;;3.73;72.89
33454;BME280;39400;49.744;7.012;2023-04-06T06:30:06;95995.56;;;3.85;71.81
33454;BME280;39400;49.744;7.012;2023-04-06T06:32:32;95994.13;;;3.75;71.59
33454;BME280;39400;49.744;7.012;2023-04-06T06:34:58;95999.47;;;3.87;71.91
33454;BME280;39400;49.744;7.012;2023-04-06T06:37:24;95990.03;;;3.97;70.79
33454;BME280;39400;49.744;7.012;2023-04-06T06:39:49;95988.50;;;3.84;70.93
33454;BME280;39400;49.744;7.012;2023-04-06T06:42:16;95989.06;;;4.05;71.52
33454;BME280;39400;49.744;7.012;2023-04-06T06:45:10;95992.56;;;4.21;70.63
33454;BME280;39400;49.744;7.012;2023-04-06T06:47:36;95989.06;;;4.05;70.91
33454;BME280;39400;49.744;7.012;2023-04-06T06:50:01;95988.00;;;4.25;71.50
33454;BME280;39400;49.744;7.012;2023-04-06T06:52:26;95983.97;;;4.51;71.65
33454;BME280;39400;49.744;7.012;2023-04-06T06:54:52;95989.28;;;4.63;70.65
33454;BME280;39400;49.744;7.012;2023-04-06T06:57:19;95988.16;;;4.64;71.11
33454;BME280;39400;49.744;7.012;2023-04-06T06:59:45;95983.81;;;4.79;70.15
33454;BME280;39400;49.744;7.012;2023-04-06T07:02:12;95992.06;;;4.83;70.39
33454;BME280;39400;49.744;7.012;2023-04-06T07:04:37;95991.63;;;4.81;69.72
33454;BME280;39400;49.744;7.012;2023-04-06T07:07:03;95994.56;;;5.07;69.08
33454;BME280;39400;49.744;7.012;2023-04-06T07:09:29;95991.78;;;4.88;69.16
33454;BME280;39400;49.744;7.012;2023-04-06T07:11:54;95991.53;;;5.12;69.74
33454;BME280;39400;49.744;7.012;2023-04-06T07:14:20;95997.44;;;5.14;70.16
33454;BME280;39400;49.744;7.012;2023-04-06T07:16:45;96000.53;;;5.32;69.38
33454;BME280;39400;49.744;7.012;2023-04-06T07:19:11;96000.66;;;5.39;70.07
33454;BME280;39400;49.744;7.012;2023-04-06T07:21:36;95998.03;;;5.23;68.91
33454;BME280;39400;49.744;7.012;2023-04-06T07:24:02;96001.03;;;5.38;69.20
33454;BME280;39400;49.744;7.012;2023-04-06T07:26:27;95994.00;;;5.56;67.59
33454;BME280;39400;49.744;7.012;2023-04-06T07:28:53;95995.03;;;5.71;67.63
33454;BME280;39400;49.744;7.012;2023-04-06T07:31:20;95987.63;;;5.91;66.59
33454;BME280;39400;49.744;7.012;2023-04-06T07:33:45;95987.06;;;6.01;67.08
33454;BME280;39400;49.744;7.012;2023-04-06T07:36:11;95983.06;;;6.41;67.00
33454;BME280;39400;49.744;7.012;2023-04-06T07:38:37;95980.00;;;6.46;66.76
33454;BME280;39400;49.744;7.012;2023-04-06T07:41:02;95977.94;;;6.62;65.91
33454;BME280;39400;49.744;7.012;2023-04-06T07:43:28;95979.72;;;6.78;67.56
33454;BME280;39400;49.744;7.012;2023-04-06T07:45:55;95980.00;;;6.99;67.09
33454;BME280;39400;49.744;7.012;2023-04-06T07:48:21;95982.44;;;7.04;64.22
33454;BME280;39400;49.744;7.012;2023-04-06T07:50:46;95980.81;;;7.30;63.08
33454;BME280;39400;49.744;7.012;2023-04-06T07:53:14;95985.88;;;7.28;62.79
33454;BME280;39400;49.744;7.012;2023-04-06T07:55:39;95985.22;;;7.38;61.98
33454;BME280;39400;49.744;7.012;2023-04-06T07:58:05;95977.69;;;7.28;61.55
33454;BME280;39400;49.744;7.012;2023-04-06T08:00:31;95981.03;;;7.48;61.36
33454;BME280;39400;49.744;7.012;2023-04-06T08:02:56;95974.38;;;7.45;62.69
33454;BME280;39400;49.744;7.012;2023-04-06T08:05:22;95975.28;;;7.56;62.19
33454;BME280;39400;49.744;7.012;2023-04-06T08:07:47;95982.97;;;7.47;61.00
33454;BME280;39400;49.744;7.012;2023-04-06T08:10:13;95985.06;;;7.57;59.14
33454;BME280;39400;49.744;7.012;2023-04-06T08:12:38;95980.75;;;7.56;59.96
33454;BME280;39400;49.744;7.012;2023-04-06T08:15:04;95983.06;;;7.54;59.51
33454;BME280;39400;49.744;7.012;2023-04-06T08:17:31;95983.53;;;7.60;59.66
33454;BME280;39400;49.744;7.012;2023-04-06T08:19:57;95986.22;;;7.56;60.17
33454;BME280;39400;49.744;7.012;2023-04-06T08:22:22;95986.31;;;7.63;60.87
33454;BME280;39400;49.744;7.012;2023-04-06T08:24:47;95978.53;;;7.66;59.97
33454;BME280;39400;49.744;7.012;2023-04-06T08:27:13;95988.63;;;7.61;59.22
33454;BME280;39400;49.744;7.012;2023-04-06T08:29:38;95987.91;;;7.68;57.42
33454;BME280;39400;49.744;7.012;2023-04-06T08:32:04;95984.75;;;7.62;57.21
33454;BME280;39400;49.744;7.012;2023-04-06T08:34:29;95989.53;;;7.73;58.78
33454;BME280;39400;49.744;7.012;2023-04-06T08:36:54;95991.19;;;7.81;57.39
33454;BME280;39400;49.744;7.012;2023-04-06T08:39:20;96001.59;;;7.68;58.92
33454;BME280;39400;49.744;7.012;2023-04-06T08:41:45;95992.09;;;7.92;58.34
33454;BME280;39400;49.744;7.012;2023-04-06T08:44:11;95999.34;;;8.11;56.62
33454;BME280;39400;49.744;7.012;2023-04-06T08:46:37;95992.78;;;8.23;56.95
33454;BME280;39400;49.744;7.012;2023-04-06T08:49:03;95990.47;;;8.25;57.53
33454;BME280;39400;49.744;7.012;2023-04-06T08:51:29;96003.31;;;8.21;56.49
33454;BME280;39400;49.744;7.012;2023-04-06T08:53:56;95995.63;;;8.33;56.14
33454;BME280;39400;49.744;7.012;2023-04-06T08:56:23;96002.38;;;8.43;56.14
33454;BME280;39400;49.744;7.012;2023-04-06T08:58:50;96007.41;;;8.38;55.44
33454;BME280;39400;49.744;7.012;2023-04-06T09:01:22;95994.22;;;8.50;54.08
33454;BME280;39400;49.744;7.012;2023-04-06T09:03:51;95999.00;;;8.61;54.38
33454;BME280;39400;49.744;7.012;2023-04-06T09:06:18;95997.38;;;8.49;54.95
33454;BME280;39400;49.744;7.012;2023-04-06T09:08:44;96003.72;;;8.64;54.88
33454;BME280;39400;49.744;7.012;2023-04-06T09:11:10;95995.16;;;8.69;53.35
33454;BME280;39400;49.744;7.012;2023-04-06T09:14:05;96008.34;;;8.52;55.13
33454;BME280;39400;49.744;7.012;2023-04-06T09:16:39;96000.50;;;8.51;55.03
33454;BME280;39400;49.744;7.012;2023-04-06T09:19:04;96000.25;;;8.26;56.88
33454;BME280;39400;49.744;7.012;2023-04-06T09:21:30;96002.59;;;8.27;56.27
33454;BME280;39400;49.744;7.012;2023-04-06T09:23:59;96008.09;;;8.31;55.30
33454;BME280;39400;49.744;7.012;2023-04-06T09:26:25;95998.28;;;8.26;55.50
33454;BME280;39400;49.744;7.012;2023-04-06T09:28:55;96006.59;;;8.37;53.49
33454;BME280;39400;49.744;7.012;2023-04-06T09:31:25;96003.31;;;8.21;53.77
33454;BME280;39400;49.744;7.012;2023-04-06T09:33:52;96002.56;;;8.24;54.18
33454;BME280;39400;49.744;7.012;2023-04-06T09:36:18;95997.25;;;8.38;53.97
33454;BME280;39400;49.744;7.012;2023-04-06T09:38:54;95993.06;;;8.51;54.65
33454;BME280;39400;49.744;7.012;2023-04-06T09:41:27;95995.84;;;8.58;54.10
33454;BME280;39400;49.744;7.012;2023-04-06T09:44:08;95999.13;;;8.75;51.95
33454;BME280;39400;49.744;7.012;2023-04-06T09:46:38;95989.66;;;8.69;53.44
33454;BME280;39400;49.744;7.012;2023-04-06T09:49:05;95996.84;;;8.84;50.25
33454;BME280;39400;49.744;7.012;2023-04-06T09:51:36;95991.22;;;8.63;51.29
33454;BME280;39400;49.744;7.012;2023-04-06T09:54:02;95985.44;;;8.78;51.32
33454;BME280;39400;49.744;7.012;2023-04-06T09:56:31;95987.41;;;8.78;51.02
33454;BME280;39400;49.744;7.012;2023-04-06T09:59:02;95996.31;;;8.68;52.47
33454;BME280;39400;49.744;7.012;2023-04-06T10:01:32;95992.16;;;8.88;50.63
33454;BME280;39400;49.744;7.012;2023-04-06T10:06:28;95993.78;;;8.96;51.39
33454;BME280;39400;49.744;7.012;2023-04-06T10:08:56;96002.41;;;8.98;52.19
33454;BME280;39400;49.744;7.012;2023-04-06T10:11:22;96007.28;;;9.26;49.68
33454;BME280;39400;49.744;7.012;2023-04-06T10:13:48;96001.81;;;9.30;51.77
33454;BME280;39400;49.744;7.012;2023-04-06T10:16:14;95998.63;;;9.21;49.50
33454;BME280;39400;49.744;7.012;2023-04-06T10:18:43;95999.31;;;9.07;51.20
33454;BME280;39400;49.744;7.012;2023-04-06T10:21:14;96000.22;;;9.22;51.64
33454;BME280;39400;49.744;7.012;2023-04-06T10:23:46;96004.06;;;9.14;51.32
33454;BME280;39400;49.744;7.012;2023-04-06T10:26:14;95999.34;;;9.11;51.94
33454;BME280;39400;49.744;7.012;2023-04-06T10:28:41;96002.19;;;9.21;51.27
33454;BME280;39400;49.744;7.012;2023-04-06T10:31:07;95994.69;;;9.15;51.83
33454;BME280;39400;49.744;7.012;2023-04-06T10:33:33;96000.03;;;8.97;51.49
33454;BME280;39400;49.744;7.012;2023-04-06T10:36:21;95997.88;;;9.27;52.39
33454;BME280;39400;49.744;7.012;2023-04-06T10:38:54;95996.78;;;9.39;51.15
33454;BME280;39400;49.744;7.012;2023-04-06T10:41:19;96004.16;;;9.28;51.77
33454;BME280;39400;49.744;7.012;2023-04-06T10:43:45;95990.91;;;9.41;52.84
33454;BME280;39400;49.744;7.012;2023-04-06T10:46:10;96002.28;;;9.43;51.72
33454;BME280;39400;49.744;7.012;2023-04-06T10:48:44;95997.56;;;9.43;53.30
33454;BME280;39400;49.744;7.012;2023-04-06T10:51:11;96004.34;;;9.64;52.54
33454;BME280;39400;49.744;7.012;2023-04-06T10:53:37;95997.19;;;9.48;52.26
33454;BME280;39400;49.744;7.012;2023-04-06T10:56:03;95998.09;;;9.70;54.18
33454;BME280;39400;49.744;7.012;2023-04-06T10:58:29;95990.19;;;9.62;53.03
33454;BME280;39400;49.744;7.012;2023-04-06T11:00:54;95985.59;;;9.84;53.41
33454;BME280;39400;49.744;7.012;2023-04-06T11:03:20;95984.88;;;10.12;51.80
33454;BME280;39400;49.744;7.012;2023-04-06T11:05:49;95987.94;;;9.92;53.54
33454;BME280;39400;49.744;7.012;2023-04-06T11:08:29;95978.97;;;10.10;53.78
33454;BME280;39400;49.744;7.012;2023-04-06T11:11:08;95979.34;;;10.01;54.43
33454;BME280;39400;49.744;7.012;2023-04-06T11:16:06;95982.06;;;9.94;54.40
33454;BME280;39400;49.744;7.012;2023-04-06T11:18:31;95978.50;;;9.86;53.97
33454;BME280;39400;49.744;7.012;2023-04-06T11:20:57;95975.81;;;10.08;54.45
33454;BME280;39400;49.744;7.012;2023-04-06T11:23:23;95971.50;;;9.99;54.14
33454;BME280;39400;49.744;7.012;2023-04-06T11:25:52;95974.19;;;9.78;53.09
33454;BME280;39400;49.744;7.012;2023-04-06T11:28:18;95970.28;;;9.93;54.31
33454;BME280;39400;49.744;7.012;2023-04-06T11:30:45;95967.56;;;10.08;54.95
33454;BME280;39400;49.744;7.012;2023-04-06T11:33:10;95962.03;;;9.86;55.50
33454;BME280;39400;49.744;7.012;2023-04-06T11:35:37;95960.50;;;9.92;55.41
33454;BME280;39400;49.744;7.012;2023-04-06T11:38:02;95969.13;;;9.87;56.10
33454;BME280;39400;49.744;7.012;2023-04-06T11:40:28;95969.94;;;9.98;56.18
33454;BME280;39400;49.744;7.012;2023-04-06T11:42:55;95953.06;;;10.18;54.84
33454;BME280;39400;49.744;7.012;2023-04-06T11:45:21;95960.53;;;10.17;56.35
33454;BME280;39400;49.744;7.012;2023-04-06T11:47:55;95959.00;;;10.27;55.82
33454;BME280;39400;49.744;7.012;2023-04-06T11:50:21;95952.72;;;10.30;57.09
33454;BME280;39400;49.744;7.012;2023-04-06T11:52:59;95958.22;;;10.30;56.54
33454;BME280;39400;49.744;7.012;2023-04-06T11:55:25;95958.97;;;10.09;56.62
33454;BME280;39400;49.744;7.012;2023-04-06T11:57:50;95955.00;;;9.99;56.91
33454;BME280;39400;49.744;7.012;2023-04-06T12:00:16;95955.03;;;10.17;55.80
33454;BME280;39400;49.744;7.012;2023-04-06T12:02:46;95958.94;;;9.95;56.50
33454;BME280;39400;49.744;7.012;2023-04-06T12:05:11;95960.09;;;9.90;57.45
33454;BME280;39400;49.744;7.012;2023-04-06T12:07:36;95958.91;;;9.84;57.56
33454;BME280;39400;49.744;7.012;2023-04-06T12:10:02;95954.63;;;10.01;58.52
33454;BME280;39400;49.744;7.012;2023-04-06T12:12:28;95954.66;;;10.12;57.98
33454;BME280;39400;49.744;7.012;2023-04-06T12:14:54;95955.44;;;10.09;56.03
33454;BME280;39400;49.744;7.012;2023-04-06T12:17:20;95963.25;;;9.99;57.24
33454;BME280;39400;49.744;7.012;2023-04-06T12:19:46;95958.09;;;9.80;57.39
33454;BME280;39400;49.744;7.012;2023-04-06T12:22:11;95952.59;;;9.80;57.40
33454;BME280;39400;49.744;7.012;2023-04-06T12:24:37;95947.19;;;10.02;58.39
33454;BME280;39400;49.744;7.012;2023-04-06T12:27:02;95949.50;;;9.99;56.37
33454;BME280;39400;49.744;7.012;2023-04-06T12:29:28;95959.31;;;10.04;57.62
33454;BME280;39400;49.744;7.012;2023-04-06T12:31:53;95951.06;;;9.97;57.21
33454;BME280;39400;49.744;7.012;2023-04-06T12:34:19;95958.53;;;10.04;56.96
33454;BME280;39400;49.744;7.012;2023-04-06T12:36:44;95954.19;;;9.74;58.53
33454;BME280;39400;49.744;7.012;2023-04-06T12:39:10;95947.16;;;9.91;57.60
33454;BME280;39400;49.744;7.012;2023-04-06T12:41:35;95952.28;;;10.14;57.64
33454;BME280;39400;49.744;7.012;2023-04-06T12:44:01;95949.50;;;9.96;57.62
33454;BME280;39400;49.744;7.012;2023-04-06T12:46:26;95945.59;;;10.11;56.27
33454;BME280;39400;49.744;7.012;2023-04-06T12:48:51;95960.13;;;10.01;56.86
33454;BME280;39400;49.744;7.012;2023-04-06T12:51:17;95954.97;;;9.85;58.67
33454;BME280;39400;49.744;7.012;2023-04-06T12:53:42;95951.06;;;9.93;57.84
33454;BME280;39400;49.744;7.012;2023-04-06T12:56:13;95947.94;;;9.84;58.51
33454;BME280;39400;49.744;7.012;2023-04-06T12:58:38;95951.47;;;9.92;58.86
33454;BME280;39400;49.744;7.012;2023-04-06T13:01:06;95946.31;;;9.76;59.55
33454;BME280;39400;49.744;7.012;2023-04-06T13:03:32;95954.56;;;9.83;60.05
33454;BME280;39400;49.744;7.012;2023-04-06T13:05:59;95957.59;;;9.42;60.34
33454;BME280;39400;49.744;7.012;2023-04-06T13:08:25;95951.75;;;9.55;60.38
33454;BME280;39400;49.744;7.012;2023-04-06T13:10:51;95955.28;;;9.59;61.12
33454;BME280;39400;49.744;7.012;2023-04-06T13:13:20;95957.22;;;9.47;60.88
33454;BME280;39400;49.744;7.012;2023-04-06T13:15:45;95954.06;;;9.49;60.83